Airport View

Enter AWOS ICAO identifier for current METAR.

ex. KFNL

K0V4 202215Z AUTO 16003KT 10SM CLR 21/15 A3019 RMK AO1 T02080149

20 Oct 2020 22:22

Frequency: 120.575

Phone: 434-283-7826

Other Area AWOS: KLYH - KW78 - KFVX - KCXE

TAF KLYH 201731Z 2018/2118 VRB03KT P6SM FEW250 FM210500 00000KT 3SM BR BKN250 FM210800 00000KT 1/2SM FG VV002 FM211330 VRB03KT P6SM BKN050